Latest Weather Observations for PORTABLE QFRJ (North Tamborine)

IDQ60801

Issued at 7:22 pm EST Wednesday 28 September 2022 (issued every 10 minutes, with the page automatically refreshed every 10 minutes)

About weather observations | Map of weather stations | Latest weather observations for QLD | Other Formats
Station Details ID: 250074 Name: NORTH TAMBORINE (QFRJ) Lat: -27.94 Lon: 153.19 Height: 527.0 m

Portable automatic weather stations (PAWS) are operated by other organisations, such as Fire and Emergency Services, and are included here by agreement. Portable stations may be deployed to a location for a short period and their location may be subject to change without notice. Wind observations from these stations are provided from heights of either three (3) or ten (10) metres above ground level (AGL).

Data from the previous 72 hours. | See also: Recent months for locations in Queensland
Date/Time
EST
Temp
°C
App
Temp
°C
Dew
Point
°C
Rel
Hum
%
Delta-T
°C
Wind Press
QNH
hPa
Press
MSL
hPa
Rain since
9am
mm
Dir  Spd
km/h
Gust
km/h
Spd
kts
Gust
kts
28/07:10pm 17.6 17.4 17.6 100 0.0 NNW 15 19 8 10 - - 0.0
28/07:00pm 17.7 17.5 17.7 100 0.0 NNW 15 19 8 10 - - 0.0
28/06:50pm 17.7 17.5 17.7 100 0.0 NNW 15 17 8 9 - - 0.0
28/06:40pm 17.8 17.7 17.8 100 0.0 NNW 15 17 8 9 - - 0.0
28/06:30pm 17.8 18.1 17.8 100 0.0 NNW 13 15 7 8 - - 0.0
28/06:20pm 18.0 18.6 17.8 99 0.1 NNW 11 15 6 8 - - 0.0
28/06:10pm 18.3 18.7 17.3 94 0.6 NNW 11 15 6 8 - - 0.0
28/06:00pm 18.6 18.5 16.1 85 1.5 NNW 11 13 6 7 - - 0.0
28/05:50pm 18.8 17.7 15.4 80 2.0 NNW 15 17 8 9 - - 0.0
28/05:40pm 18.8 17.3 15.4 80 2.0 NNW 17 19 9 10 - - 0.0
28/05:30pm 18.9 17.9 15.6 81 2.0 NNW 15 19 8 10 - - 0.0
28/05:20pm 19.0 18.0 15.5 80 2.1 NNW 15 17 8 9 - - 0.0
28/05:10pm 19.1 18.5 15.6 80 2.1 NNW 13 15 7 8 - - 0.0
28/05:00pm 19.2 19.0 15.7 80 2.1 NNW 11 17 6 9 - - 0.0
28/04:50pm 19.3 18.8 15.8 80 2.1 NW 13 15 7 8 - - 0.0
28/04:40pm 19.5 19.4 15.9 80 2.2 NW 11 15 6 8 - - 0.0
28/04:30pm 19.6 18.6 15.7 78 2.4 NW 15 19 8 10 - - 0.0
28/04:20pm 19.7 19.5 15.7 78 2.4 NW 11 17 6 9 - - 0.0
28/04:10pm 19.7 19.6 16.1 80 2.2 NNW 11 17 6 9 - - 0.0
28/04:00pm 19.6 18.6 15.7 78 2.4 NW 15 19 8 10 - - 0.0
28/03:50pm 19.7 18.8 15.8 78 2.4 WNW 15 17 8 9 - - 0.0
28/03:40pm 20.1 19.1 15.6 75 2.7 WNW 15 19 8 10 - - 0.0
28/03:30pm 20.0 19.6 16.2 79 2.3 NW 13 19 7 10 - - 0.0
28/03:20pm 19.9 18.9 15.6 76 2.6 NW 15 20 8 11 - - 0.0
28/03:10pm 19.6 18.5 15.3 76 2.6 NW 15 19 8 10 - - 0.0
28/03:00pm 19.4 18.4 15.6 78 2.3 NW 15 19 8 10 - - 0.0
28/02:50pm 19.6 17.7 15.3 76 2.6 WNW 19 22 10 12 - - 0.0
28/02:40pm 19.7 18.2 15.4 76 2.6 W 17 20 9 11 - - 0.0
28/02:30pm 19.9 18.7 15.1 74 2.9 WNW 15 17 8 9 - - 0.0
28/02:20pm 20.2 19.2 15.5 74 2.9 NW 15 20 8 11 - - 0.0
28/02:10pm 19.9 18.9 15.5 76 2.7 NW 15 19 8 10 - - 0.0
28/02:00pm 19.5 17.4 14.7 74 2.9 WNW 19 26 10 14 - - 0.0
28/01:50pm 19.2 17.8 15.6 79 2.2 NW 17 20 9 11 - - 0.0
28/01:40pm 18.9 18.1 16.1 84 1.7 NW 15 20 8 11 - - 0.0
28/01:30pm 18.6 16.9 15.7 83 1.8 NW 19 22 10 12 - - 0.0
28/01:20pm 18.7 17.6 15.3 80 2.0 WNW 15 19 8 10 - - 0.0
28/01:10pm 18.4 17.0 15.5 83 1.7 WNW 17 19 9 10 - - 0.0
28/01:00pm 18.3 17.3 15.6 84 1.6 WNW 15 20 8 11 - - 0.0
28/12:50pm 17.9 17.3 16.6 92 0.8 WNW 15 19 8 10 - - 0.0
28/12:40pm 17.6 16.6 16.7 94 0.6 WNW 17 19 9 10 - - 0.0
28/12:30pm 17.5 17.1 17.1 97 0.2 WNW 15 19 8 10 - - 0.0
28/12:20pm 17.4 17.7 17.1 98 0.2 WNW 11 17 6 9 - - 0.0
28/12:10pm 17.6 17.1 16.9 96 0.4 W 15 17 8 9 - - 0.0
28/12:00pm 17.9 17.7 16.6 92 0.8 W 13 19 7 10 - - 0.0
28/11:50am 17.7 16.7 16.6 93 0.7 WNW 17 19 9 10 - - 0.0
28/11:40am 18.0 17.3 16.5 91 0.9 WNW 15 19 8 10 - - 0.0
28/11:30am 18.0 16.5 16.3 90 1.0 W 19 22 10 12 - - 0.0
28/11:20am 18.0 16.9 16.3 90 1.0 W 17 22 9 12 - - 0.0
28/11:10am 18.3 17.1 16.1 87 1.3 WNW 17 22 9 12 - - 0.0
28/11:00am 18.4 16.9 16.3 87 1.3 WNW 19 24 10 13 - - 0.0
28/10:50am 18.2 16.5 16.2 88 1.2 W 20 26 11 14 - - 0.0
28/10:40am 17.8 16.0 15.9 89 1.1 W 20 26 11 14 - - 0.0
28/10:30am 17.9 16.1 16.0 89 1.2 W 20 26 11 14 - - 0.0
28/10:20am 17.8 16.0 15.6 87 1.3 WNW 19 24 10 13 - - 0.0
28/10:10am 17.5 15.9 16.1 91 0.8 W 19 26 10 14 - - 0.0
28/10:00am 17.5 16.2 15.8 90 1.0 W 17 20 9 11 - - 0.0
28/09:50am 17.5 15.7 15.5 88 1.2 WNW 19 24 10 13 - - 0.0
28/09:40am 17.6 15.7 15.2 86 1.4 WNW 19 20 10 11 - - 0.0
28/09:30am 17.2 15.1 15.2 88 1.2 WNW 20 22 11 12 - - 0.0
28/09:20am 16.8 15.0 15.6 93 0.7 W 19 20 10 11 - - 0.0
28/09:10am 16.5 14.6 15.3 93 0.7 WNW 19 22 10 12 - - 0.0
28/09:00am 16.9 14.8 15.3 90 1.0 WNW 20 24 11 13 - - 12.2
28/08:50am 17.0 14.8 14.8 87 1.3 WNW 20 28 11 15 - - 12.2
28/08:40am 17.2 13.9 14.0 81 1.9 NW 24 28 13 15 - - 12.2
28/08:30am 16.9 14.0 14.0 83 1.7 NW 22 26 12 14 - - 12.2
28/08:20am 16.4 13.2 14.2 87 1.3 WNW 24 26 13 14 - - 12.2
28/08:10am 16.2 13.0 14.2 88 1.2 WNW 24 30 13 16 - - 12.2
28/08:00am 16.3 13.4 14.0 86 1.3 WNW 22 30 12 16 - - 12.2
28/07:50am 16.1 13.1 13.7 86 1.4 WNW 22 28 12 15 - - 12.2
28/07:40am 15.5 13.5 15.0 97 0.3 WNW 19 22 10 12 - - 12.2
28/07:30am 15.4 13.8 15.0 97 0.2 WNW 17 19 9 10 - - 12.2
28/07:20am 15.8 13.8 14.0 89 1.0 WNW 17 20 9 11 - - 12.2
28/07:10am 15.4 13.6 15.4 100 0.0 WNW 19 22 10 12 - - 12.2
28/07:00am 14.7 13.0 14.7 100 0.0 WNW 17 19 9 10 - - 12.2
28/06:50am 14.3 12.4 14.3 100 0.0 WNW 17 19 9 10 - - 12.2
28/06:40am 14.6 12.5 14.6 100 0.0 W 19 22 10 12 - - 12.2
28/06:30am 14.8 12.6 14.8 100 0.0 W 20 20 11 11 - - 12.2
28/06:20am 14.9 12.7 14.9 100 0.0 W 20 24 11 13 - - 12.2
28/06:10am 14.9 12.7 14.9 100 0.0 W 20 22 11 12 - - 12.2
28/06:00am 14.9 12.9 14.9 100 0.0 W 19 22 10 12 - - 12.2
28/05:50am 14.9 12.7 14.9 100 0.0 W 20 22 11 12 - - 12.2
28/05:40am 14.8 - 14.9 100 - W 19 20 10 11 - - 12.2
28/05:30am 14.8 12.7 14.8 100 0.0 W 19 20 10 11 - - 12.2
28/05:20am 14.8 12.7 14.8 100 0.0 WNW 19 19 10 10 - - 12.2
28/05:10am 14.8 13.1 14.8 100 0.0 W 17 20 9 11 - - 12.2
28/05:00am 14.7 - 14.8 100 - W 17 20 9 11 - - 12.2
28/04:50am 14.8 13.1 14.8 100 0.0 W 17 19 9 10 - - 12.2
28/04:40am 14.7 13.4 14.7 100 0.0 W 15 17 8 9 - - 12.2
28/04:30am 14.7 13.4 14.7 100 0.0 W 15 17 8 9 - - 12.2
28/04:20am 15.0 13.4 15.0 100 0.0 W 17 20 9 11 - - 12.2
28/04:10am 14.7 13.7 14.7 100 0.0 WNW 13 15 7 8 - - 12.2
28/04:00am 14.7 13.4 14.7 100 0.0 W 15 19 8 10 - - 12.2
28/03:50am 14.7 13.4 14.7 100 0.0 W 15 17 8 9 - - 12.2
28/03:40am 14.6 13.2 14.6 100 0.0 W 15 19 8 10 - - 12.2
28/03:30am 14.6 13.6 14.6 100 0.0 WNW 13 17 7 9 - - 12.2
28/03:20am 14.5 14.6 14.5 100 0.0 NW 7 9 4 5 - - 12.2
28/03:10am 14.5 14.6 14.5 100 0.0 NW 7 11 4 6 - - 12.2
28/03:00am 14.4 15.1 14.4 100 0.0 NW 4 7 2 4 - - 12.2
28/02:50am 14.4 14.5 14.4 100 0.0 NNW 7 11 4 6 - - 12.2
28/02:40am 14.4 14.5 14.4 100 0.0 NNW 7 11 4 6 - - 12.2
28/02:30am 14.3 14.5 14.3 100 0.0 NNW 6 9 3 5 - - 12.2
28/02:20am 14.2 14.2 14.2 100 0.0 N 7 11 4 6 - - 12.2
28/02:10am 14.1 14.1 14.1 100 0.0 N 7 9 4 5 - - 12.2
28/02:00am 14.0 14.9 14.0 100 0.0 N 2 4 1 2 - - 12.2
28/01:50am 14.1 15.0 14.1 100 0.0 N 2 6 1 3 - - 12.2
28/01:40am 14.2 15.2 14.2 100 0.0 N 2 2 1 1 - - 12.2
28/01:30am 14.3 15.3 14.3 100 0.0 N 2 6 1 3 - - 12.2
28/01:20am 14.5 15.2 14.5 100 0.0 NNE 4 7 2 4 - - 12.2
28/01:10am 14.7 15.5 14.7 100 0.0 N 4 11 2 6 - - 12.2
28/01:00am 14.8 15.0 14.8 100 0.0 NNW 7 13 4 7 - - 12.2
28/12:50am 14.8 14.6 14.8 100 0.0 NNW 9 13 5 7 - - 12.2
28/12:40am 15.1 15.4 15.1 100 0.0 NNW 7 9 4 5 - - 12.2
28/12:30am 15.1 15.1 15.1 100 0.0 NNW 9 15 5 8 - - 12.2
28/12:20am 15.0 15.5 15.0 100 0.0 NNW 6 11 3 6 - - 12.2
28/12:10am 14.8 16.0 14.8 100 0.0 NE 2 4 1 2 - - 12.2
28/12:00am 14.5 14.8 14.5 100 0.0 E 6 11 3 6 - - 12.2
 
Date/Time
EST
Temp
°C
App
Temp
°C
Dew
Point
°C
Rel
Hum
%
Delta-T
°C
Wind Press
QNH
hPa
Press
MSL
hPa
Rain since
9am
mm
Dir  Spd
km/h
Gust
km/h
Spd
kts
Gust
kts
27/11:50pm 14.4 13.7 14.4 100 0.0 E 11 17 6 9 - - 12.2
27/11:40pm 14.6 13.2 14.6 100 0.0 E 15 15 8 8 - - 12.2
27/11:30pm 15.0 14.2 15.0 100 0.0 ENE 13 17 7 9 - - 12.2
27/11:20pm 14.8 14.3 14.8 100 0.0 ENE 11 17 6 9 - - 12.2
27/11:10pm 14.7 14.1 14.7 100 0.0 ENE 11 15 6 8 - - 12.2
27/11:00pm 15.0 16.2 15.0 100 0.0 NE 2 11 1 6 - - 12.0
27/10:50pm 14.8 15.6 14.8 100 0.0 NE 4 7 2 4 - - 12.0
27/10:40pm 14.6 16.1 14.6 100 0.0 CALM 0 4 0 2 - - 11.6
27/10:30pm 14.5 15.9 14.4 99 0.1 CALM 0 2 0 1 - - 9.4
27/10:20pm 14.7 15.7 13.1 90 0.9 CALM 0 0 0 0 - - 6.8
27/10:10pm 15.1 14.8 11.3 78 2.1 SSW 4 13 2 7 - - 3.4
27/10:00pm 15.6 14.9 14.4 92 0.7 S 11 17 6 9 - - 2.4
27/09:50pm 15.8 16.6 15.8 100 0.0 S 6 17 3 9 - - 2.4
27/09:40pm 15.8 14.9 15.8 100 0.0 W 15 20 8 11 - - 2.0
27/09:30pm 16.1 16.0 16.1 100 0.0 NNW 11 15 6 8 - - 1.8
27/09:20pm 16.1 16.8 16.1 100 0.0 N 7 9 4 5 - - 1.8
27/09:10pm 16.1 16.9 15.9 99 0.1 N 6 17 3 9 - - 1.8
27/09:00pm 16.1 16.7 15.8 98 0.2 N 7 15 4 8 - - 1.8
27/08:50pm 16.1 15.8 15.5 96 0.4 N 11 15 6 8 - - 1.8
27/08:40pm 16.0 15.4 15.6 97 0.2 N 13 17 7 9 - - 1.8
27/08:30pm 15.9 16.0 15.4 97 0.3 N 9 15 5 8 - - 1.8
27/08:20pm 15.9 15.5 15.2 96 0.4 N 11 17 6 9 - - 1.8
27/08:10pm 15.9 14.9 14.7 93 0.7 NNW 13 17 7 9 - - 1.8
27/08:00pm 15.4 15.3 13.4 88 1.1 NNW 6 9 3 5 - - 1.8
27/07:50pm 15.0 16.0 14.3 96 0.4 N 2 7 1 4 - - 1.8
27/07:40pm 14.9 16.1 14.9 100 0.0 NNW 2 4 1 2 - - 1.8
27/07:30pm 15.1 16.3 15.0 99 0.1 NNW 2 7 1 4 - - 1.8
27/07:20pm 15.2 16.4 14.9 98 0.2 NW 2 6 1 3 - - 1.8
27/07:10pm 15.2 16.5 15.1 99 0.1 NW 2 7 1 4 - - 1.8
27/07:00pm 15.2 16.9 15.2 100 0.0 CALM 0 0 0 0 - - 1.8
27/06:50pm 15.2 16.9 15.2 100 0.0 CALM 0 0 0 0 - - 1.8
27/06:40pm 15.3 16.7 15.3 100 0.0 NE 2 6 1 3 - - 1.8
27/06:30pm 15.3 15.9 15.3 100 0.0 N 6 13 3 7 - - 1.6
27/06:20pm 15.5 16.0 15.5 100 0.0 N 7 15 4 8 - - 1.4
27/06:10pm 15.8 15.6 15.8 100 0.0 NNW 11 15 6 8 - - 1.2
27/06:00pm 16.1 15.9 15.6 97 0.3 NNW 11 15 6 8 - - 0.8
27/05:50pm 16.6 16.2 15.2 91 0.8 NNW 11 13 6 7 - - 0.4
27/05:40pm 17.1 17.9 14.9 87 1.3 N 4 6 2 3 - - 0.0
27/05:30pm 17.4 19.2 15.5 89 1.1 CALM 0 2 0 1 - - 0.0
27/05:20pm 17.5 18.9 15.5 88 1.2 NNE 2 6 1 3 - - 0.0
27/05:10pm 17.6 19.5 15.7 89 1.1 CALM 0 2 0 1 - - 0.0
27/05:00pm 17.7 19.6 15.7 88 1.2 CALM 0 2 0 1 - - 0.0
27/04:50pm 17.7 19.2 15.6 87 1.3 N 2 4 1 2 - - 0.0
27/04:40pm 17.9 19.3 15.5 86 1.4 NNE 2 4 1 2 - - 0.0
27/04:30pm 18.0 19.4 15.5 85 1.5 N 2 4 1 2 - - 0.0
27/04:20pm 18.2 19.2 15.4 84 1.7 N 4 7 2 4 - - 0.0
27/04:10pm 18.4 19.7 15.2 81 1.9 N 2 6 1 3 - - 0.0
27/04:00pm 18.6 19.9 15.2 80 2.0 N 2 9 1 5 - - 0.0
27/03:50pm 18.7 19.6 15.0 79 2.2 N 4 11 2 6 - - 0.0
27/03:40pm 19.0 19.8 14.8 76 2.5 N 4 9 2 5 - - 0.0
27/03:30pm 19.4 20.1 14.5 73 2.9 N 4 11 2 6 - - 0.0
27/03:20pm 19.2 19.9 14.5 74 2.8 N 4 7 2 4 - - 0.0
27/03:10pm 18.8 19.4 14.2 74 2.7 NNW 4 7 2 4 - - 0.0
27/03:00pm 19.0 19.9 14.1 73 2.9 N 2 9 1 5 - - 0.0
27/02:50pm 19.0 19.5 13.9 72 3.0 NNW 4 7 2 4 - - 0.0
27/02:40pm 19.1 19.6 14.0 72 3.0 NNW 4 7 2 4 - - 0.0
27/02:30pm 19.5 19.4 14.0 70 3.2 NW 7 11 4 6 - - 0.0
27/02:20pm 19.3 18.8 13.8 70 3.2 NW 9 15 5 8 - - 0.0
27/02:10pm 19.4 18.9 13.7 69 3.3 NW 9 19 5 10 - - 0.0
27/02:00pm 19.0 17.6 13.4 70 3.3 NW 13 17 7 9 - - 0.0
27/01:50pm 19.2 17.8 13.3 68 3.4 NW 13 19 7 10 - - 0.0
27/01:40pm 19.1 17.8 13.6 70 3.2 NW 13 19 7 10 - - 0.0
27/01:30pm 19.1 17.8 13.6 70 3.2 NW 13 17 7 9 - - 0.0
27/01:20pm 18.8 17.5 13.8 72 2.9 NW 13 19 7 10 - - 0.0
27/01:10pm 18.8 17.0 13.4 71 3.1 NW 15 17 8 9 - - 0.0
27/01:00pm 19.1 18.4 13.2 68 3.4 NW 9 19 5 10 - - 0.0
27/12:50pm 19.1 18.6 12.8 67 3.6 NNW 7 13 4 7 - - 0.0
27/12:40pm 19.4 17.7 12.5 64 4.0 NW 13 17 7 9 - - 0.0
27/12:30pm 19.3 19.3 12.4 64 4.0 NNW 4 15 2 8 - - 0.0
27/12:20pm 19.5 18.4 12.1 62 4.2 NW 9 13 5 7 - - 0.0
27/12:10pm 19.0 17.9 12.0 64 4.0 NNW 9 15 5 8 - - 0.0
27/12:00pm 19.1 17.7 12.2 64 3.9 NNW 11 15 6 8 - - 0.0
27/11:50am 19.4 18.3 12.1 62 4.2 NW 9 19 5 10 - - 0.0
27/11:40am 19.1 18.5 12.3 64 3.9 NNW 7 15 4 8 - - 0.0
27/11:30am 18.2 16.7 12.0 67 3.5 NW 11 17 6 9 - - 0.0
27/11:20am 18.4 17.0 12.1 66 3.6 NW 11 17 6 9 - - 0.0
27/11:10am 18.6 16.3 11.9 65 3.8 NNW 15 22 8 12 - - 0.0
27/11:00am 19.3 18.6 12.1 63 4.1 NNW 7 13 4 7 - - 0.0
27/10:50am 18.8 17.4 12.2 65 3.8 NNW 11 17 6 9 - - 0.0
27/10:40am 18.6 17.0 11.7 64 3.9 NNW 11 20 6 11 - - 0.0
27/10:30am 18.1 15.8 11.7 66 3.6 NW 15 19 8 10 - - 0.0
27/10:20am 18.0 16.7 11.4 65 3.7 NNW 9 15 5 8 - - 0.0
27/10:10am 17.6 14.7 11.0 65 3.7 NW 17 20 9 11 - - 0.0
27/10:00am 17.6 15.6 11.5 67 3.4 NW 13 19 7 10 - - 0.0
27/09:50am 17.2 15.0 10.9 66 3.5 NNW 13 17 7 9 - - 0.0
27/09:40am 16.7 13.9 11.3 70 3.0 NNW 17 22 9 12 - - 0.0
27/09:30am 16.6 13.8 11.2 70 3.0 NW 17 19 9 10 - - 0.0
27/09:20am 16.7 14.3 11.4 71 2.9 NW 15 20 8 11 - - 0.0
27/09:10am 16.7 14.6 11.3 70 3.0 NNW 13 19 7 10 - - 0.0
27/09:00am 16.4 13.6 11.4 72 2.8 NW 17 24 9 13 - - 0.0
27/08:50am 16.6 13.8 11.3 71 2.9 NNW 17 24 9 13 - - 0.0
27/08:40am 16.7 13.9 11.3 70 3.0 NNW 17 20 9 11 - - 0.0
27/08:30am 16.7 14.2 11.1 69 3.1 NW 15 17 8 9 - - 0.0
27/08:20am 16.7 13.8 11.0 69 3.1 NW 17 20 9 11 - - 0.0
27/08:10am 16.6 14.0 10.7 68 3.2 NNW 15 19 8 10 - - 0.0
27/08:00am 16.4 14.6 10.7 69 3.1 NNW 11 17 6 9 - - 0.0
27/07:50am 16.2 14.0 10.7 70 3.0 NW 13 19 7 10 - - 0.0
27/07:40am 16.1 14.4 11.1 72 2.8 NW 11 17 6 9 - - 0.0
27/07:30am 16.0 14.4 11.5 74 2.5 NW 11 13 6 7 - - 0.0
27/07:20am 15.7 14.0 11.3 75 2.4 NW 11 15 6 8 - - 0.0
27/07:10am 15.7 14.0 11.2 74 2.5 NW 11 13 6 7 - - 0.0
27/07:00am 15.8 14.0 11.0 73 2.6 NNW 11 17 6 9 - - 0.0
27/06:50am 15.7 13.9 10.9 73 2.6 NW 11 19 6 10 - - 0.0
27/06:40am 15.6 13.9 11.1 74 2.5 NNW 11 15 6 8 - - 0.0
27/06:30am 15.6 13.9 11.2 75 2.4 NW 11 15 6 8 - - 0.0
27/06:20am 15.5 14.2 11.4 76 2.3 NNW 9 15 5 8 - - 0.0
27/06:10am 15.5 13.8 11.3 76 2.3 NW 11 17 6 9 - - 0.0
27/06:00am 15.5 14.2 11.4 76 2.3 NW 9 11 5 6 - - 0.0
27/05:50am 15.4 14.2 11.6 78 2.1 NW 9 13 5 7 - - 0.0
27/05:40am 15.4 14.3 11.9 79 1.9 NW 9 13 5 7 - - 0.0
27/05:30am 15.5 14.4 12.1 80 1.9 NNW 9 13 5 7 - - 0.0
27/05:20am 15.6 14.2 12.2 80 1.9 NNW 11 15 6 8 - - 0.0
27/05:10am 15.6 14.3 12.4 81 1.8 NNW 11 19 6 10 - - 0.0
27/05:00am 15.6 14.4 12.7 83 1.6 NNW 11 19 6 10 - - 0.0
27/04:50am 15.5 14.4 13.0 85 1.4 NNW 11 13 6 7 - - 0.0
27/04:40am 15.4 14.0 13.4 88 1.1 NNW 13 17 7 9 - - 0.0
27/04:30am 15.4 14.1 13.6 89 1.0 NNW 13 17 7 9 - - 0.0
27/04:20am 15.3 14.4 13.8 91 0.9 NNW 11 15 6 8 - - 0.0
27/04:10am 15.3 14.5 14.0 92 0.8 NNW 11 19 6 10 - - 0.0
27/04:00am 15.3 15.3 14.2 93 0.6 NNW 7 11 4 6 - - 0.0
27/03:50am 15.4 15.4 14.2 92 0.7 NNW 7 13 4 7 - - 0.0
27/03:40am 15.4 14.7 14.2 92 0.7 NNW 11 13 6 7 - - 0.0
27/03:30am 15.5 14.8 14.3 92 0.7 NNW 11 15 6 8 - - 0.0
27/03:20am 15.5 15.2 14.5 94 0.6 NNW 9 13 5 7 - - 0.0
27/03:10am 15.5 15.7 14.6 94 0.5 NNW 7 9 4 5 - - 0.0
27/03:00am 15.6 15.6 14.3 92 0.8 N 7 11 4 6 - - 0.0
27/02:50am 15.6 15.6 14.1 91 0.9 N 7 11 4 6 - - 0.0
27/02:40am 15.7 15.8 14.0 90 1.0 N 6 7 3 4 - - 0.0
27/02:30am 15.7 16.1 13.7 88 1.2 N 4 6 2 3 - - 0.0
27/02:20am 15.8 16.6 13.6 87 1.3 N 2 6 1 3 - - 0.0
27/02:10am 15.9 16.2 13.4 85 1.4 NNE 4 6 2 3 - - 0.0
27/02:00am 15.9 16.5 13.2 84 1.5 NNE 2 6 1 3 - - 0.0
27/01:50am 15.9 16.5 13.1 83 1.6 NNE 2 6 1 3 - - 0.0
27/01:40am 16.0 16.9 13.0 82 1.7 CALM 0 4 0 2 - - 0.0
27/01:30am 15.9 16.5 13.0 83 1.7 NNE 2 7 1 4 - - 0.0
27/01:20am 16.0 16.6 13.1 83 1.7 NNE 2 4 1 2 - - 0.0
27/01:10am 16.0 16.6 13.1 83 1.7 NNE 2 7 1 4 - - 0.0
27/01:00am 16.0 16.2 13.1 83 1.7 NNE 4 7 2 4 - - 0.0
27/12:50am 15.9 16.2 13.5 86 1.4 NNE 4 7 2 4 - - 0.0
27/12:40am 15.8 15.7 13.4 86 1.4 NNE 6 7 3 4 - - 0.0
27/12:30am 15.8 16.1 13.3 85 1.4 NNE 4 6 2 3 - - 0.0
27/12:20am 15.7 16.6 14.0 90 1.0 N 2 6 1 3 - - 0.0
27/12:10am 15.6 16.3 14.4 92 0.7 N 4 9 2 5 - - 0.0
27/12:00am 15.6 16.6 14.4 92 0.7 NNE 2 6 1 3 - - 0.0
 
Date/Time
EST
Temp
°C
App
Temp
°C
Dew
Point
°C
Rel
Hum
%
Delta-T
°C
Wind Press
QNH
hPa
Press
MSL
hPa
Rain since
9am
mm
Dir  Spd
km/h
Gust
km/h
Spd
kts
Gust
kts
26/11:50pm 15.6 16.3 14.4 92 0.7 N 4 6 2 3 - - 0.0
26/11:40pm 15.6 16.7 14.7 94 0.5 N 2 6 1 3 - - 0.0
26/11:30pm 15.6 16.7 14.6 94 0.6 NNE 2 4 1 2 - - 0.0
26/11:20pm 15.6 16.5 15.0 96 0.4 N 4 6 2 3 - - 0.0
26/11:10pm 15.7 17.1 15.5 99 0.1 N 2 7 1 4 - - 0.0
26/11:00pm 15.8 17.3 15.8 100 0.0 NNE 2 4 1 2 - - 0.0
26/10:50pm 15.9 17.5 15.9 100 0.0 NNE 2 4 1 2 - - 0.0
26/10:40pm 15.9 16.7 15.9 100 0.0 NNE 6 9 3 5 - - 0.0
26/10:30pm 15.9 17.1 15.9 100 0.0 NNE 4 13 2 7 - - 0.0
26/10:20pm 15.9 17.1 15.9 100 0.0 NNE 4 6 2 3 - - 0.0
26/10:10pm 16.0 17.2 16.0 100 0.0 NNE 4 9 2 5 - - 0.0
26/10:00pm 16.0 17.2 16.0 100 0.0 NNE 4 7 2 4 - - 0.0
26/09:50pm 16.0 17.2 16.0 100 0.0 NNE 4 9 2 5 - - 0.0
26/09:40pm 16.0 16.9 16.0 100 0.0 NNE 6 11 3 6 - - 0.0
26/09:30pm 16.0 17.2 16.0 100 0.0 N 4 9 2 5 - - 0.0
26/09:20pm 16.0 17.2 16.0 100 0.0 N 4 7 2 4 - - 0.0
26/09:10pm 16.0 17.6 16.0 100 0.0 N 2 4 1 2 - - 0.0
26/09:00pm 16.0 17.2 15.8 99 0.1 N 4 7 2 4 - - 0.0
26/08:50pm 16.2 16.8 15.4 95 0.5 N 6 9 3 5 - - 0.0
26/08:40pm 16.2 17.0 14.9 92 0.8 N 4 9 2 5 - - 0.0
26/08:30pm 16.3 17.0 14.5 89 1.1 N 4 7 2 4 - - 0.0
26/08:20pm 16.2 16.3 14.0 87 1.3 N 6 11 3 6 - - 0.0
26/08:10pm 16.1 17.2 14.6 91 0.9 N 2 6 1 3 - - 0.0
26/08:00pm 16.2 17.6 15.5 96 0.4 N 2 4 1 2 - - 0.0
26/07:50pm 16.2 18.1 15.8 97 0.2 CALM 0 4 0 2 - - 0.0
26/07:40pm 16.2 17.6 15.4 95 0.5 N 2 7 1 4 - - 0.0
26/07:30pm 16.2 17.6 15.3 94 0.5 NNE 2 6 1 3 - - 0.0
26/07:20pm 16.2 17.7 15.6 96 0.4 NNE 2 4 1 2 - - 0.0
26/07:10pm 16.2 17.7 15.8 97 0.2 N 2 4 1 2 - - 0.0
26/07:00pm 16.2 18.2 16.1 99 0.1 CALM 0 2 0 1 - - 0.0
26/06:50pm 16.3 18.4 16.2 99 0.1 CALM 0 2 0 1 - - 0.0
26/06:40pm 16.4 18.4 16.1 98 0.2 CALM 0 2 0 1 - - 0.0
26/06:30pm 16.5 18.1 16.0 97 0.3 NE 2 4 1 2 - - 0.0
26/06:20pm 16.6 18.5 15.7 94 0.5 CALM 0 0 0 0 - - 0.0
26/06:10pm 16.8 18.6 15.4 91 0.8 CALM 0 2 0 1 - - 0.0
26/06:00pm 17.1 18.7 15.0 87 1.2 CALM 0 0 0 0 - - 0.0
26/05:50pm 17.4 18.9 14.6 83 1.7 CALM 0 0 0 0 - - 0.0
26/05:40pm 17.9 19.2 14.1 78 2.2 CALM 0 4 0 2 - - 0.0
26/05:30pm 18.5 19.4 13.9 74 2.7 NE 2 6 1 3 - - 0.0
26/05:20pm 19.0 19.6 13.2 69 3.4 NE 2 4 1 2 - - 0.0
26/05:10pm 19.2 19.7 12.7 66 3.7 ENE 2 7 1 4 - - 0.0
26/05:00pm 19.3 19.1 13.0 67 3.6 E 6 7 3 4 - - 0.0
26/04:50pm 19.5 19.3 13.0 66 3.8 E 6 9 3 5 - - 0.0
26/04:40pm 19.6 19.6 13.5 68 3.6 ESE 6 9 3 5 - - 0.0
26/04:30pm 19.7 19.2 13.7 68 3.5 ESE 9 15 5 8 - - 0.0
26/04:20pm 20.5 20.3 12.9 61 4.4 SE 6 9 3 5 - - 0.0
26/04:10pm 21.7 22.1 11.2 51 6.0 CALM 0 2 0 1 - - 0.0
26/04:00pm 21.7 20.4 6.0 36 8.1 WNW 2 6 1 3 - - 0.0
26/03:50pm 21.2 20.2 7.4 41 7.3 WSW 2 6 1 3 - - 0.0
26/03:40pm 21.3 19.4 6.5 38 7.7 W 6 11 3 6 - - 0.0
26/03:30pm 21.3 19.7 6.3 37 7.8 WNW 4 7 2 4 - - 0.0
26/03:20pm 21.0 19.1 6.9 40 7.4 WNW 6 7 3 4 - - 0.0
26/03:10pm 20.9 19.0 6.5 39 7.5 NW 6 11 3 6 - - 0.0
26/03:00pm 21.0 18.8 6.2 38 7.6 NW 7 13 4 7 - - 0.0
26/02:50pm 21.6 20.7 7.9 41 7.3 WNW 2 9 1 5 - - 0.0
26/02:40pm 21.9 20.8 6.8 37 7.9 NW 2 9 1 5 - - 0.0
26/02:30pm 21.4 19.7 6.0 36 7.9 N 4 11 2 6 - - 0.0
26/02:20pm 21.4 19.9 7.0 39 7.6 WNW 4 7 2 4 - - 0.0
26/02:10pm 21.2 19.3 6.9 39 7.5 WNW 6 11 3 6 - - 0.0
26/02:00pm 20.9 18.0 6.7 39 7.4 NW 11 17 6 9 - - 0.0
26/01:50pm 21.1 19.2 6.6 39 7.5 NNW 6 11 3 6 - - 0.0
26/01:40pm 21.1 19.3 7.1 40 7.4 WNW 6 15 3 8 - - 0.0
26/01:30pm 20.7 18.8 7.5 42 7.0 W 7 17 4 9 - - 0.0
26/01:20pm 20.4 17.7 7.2 42 6.9 NW 11 15 6 8 - - 0.0
26/01:10pm 20.5 18.1 7.1 42 7.0 WNW 9 13 5 7 - - 0.0
26/01:00pm 20.4 18.7 7.7 44 6.7 N 6 9 3 5 - - 0.0
26/12:50pm 20.6 19.4 8.2 44 6.6 NW 4 7 2 4 - - 0.0
26/12:40pm 20.4 18.5 9.1 48 6.1 WNW 9 11 5 6 - - 0.0
26/12:30pm 20.4 19.4 8.8 47 6.3 NW 4 7 2 4 - - 0.0
26/12:20pm 20.3 18.7 8.9 48 6.2 NW 7 11 4 6 - - 0.0
26/12:10pm 20.1 18.6 8.5 47 6.2 NW 6 15 3 8 - - 0.0
26/12:00pm 19.6 17.9 8.3 48 6.0 NW 7 13 4 7 - - 0.0
26/11:50am 19.1 17.3 9.5 53 5.2 W 9 13 5 7 - - 0.0
26/11:40am 19.0 17.4 10.1 56 4.9 NW 9 19 5 10 - - 0.0
26/11:30am 18.8 17.2 8.6 51 5.4 NW 7 13 4 7 - - 0.0
26/11:20am 19.0 16.6 8.6 51 5.5 WNW 11 15 6 8 - - 0.0
26/11:10am 19.0 16.7 9.0 52 5.4 NW 11 17 6 9 - - 0.0
26/11:00am 18.6 16.1 8.1 50 5.5 NW 11 19 6 10 - - 0.0
26/10:50am 18.7 16.9 10.9 60 4.3 NNW 11 15 6 8 - - 0.0
26/10:40am 18.5 16.8 11.1 62 4.1 NW 11 13 6 7 - - 0.0
26/10:30am 18.2 17.5 12.0 67 3.5 NW 7 11 4 6 - - 0.0
26/10:20am 17.8 16.8 13.3 75 2.6 NW 11 15 6 8 - - 0.0
26/10:10am 18.0 16.8 12.7 71 3.0 WNW 11 15 6 8 - - 0.0
26/10:00am 17.7 17.1 13.6 77 2.4 W 9 13 5 7 - - 0.0
26/09:50am 17.6 17.4 13.7 78 2.3 WNW 7 15 4 8 - - 0.0
26/09:40am 17.3 17.1 14.6 84 1.6 WNW 9 11 5 6 - - 0.0
26/09:30am 17.0 17.3 14.6 86 1.4 WNW 6 9 3 5 - - 0.0
26/09:20am 17.1 16.6 13.8 81 1.9 NW 9 15 5 8 - - 0.0
26/09:10am 16.8 17.0 14.3 85 1.5 WNW 6 9 3 5 - - 0.0
26/09:00am 16.8 17.2 15.4 91 0.8 W 7 11 4 6 - - 0.2
26/08:50am 16.9 16.6 15.4 91 0.9 WNW 11 15 6 8 - - 0.2
26/08:40am 16.7 16.4 14.5 87 1.3 WNW 9 13 5 7 - - 0.2
26/08:30am 16.6 16.4 14.7 88 1.1 NW 9 13 5 7 - - 0.2
26/08:20am 16.5 16.6 15.4 93 0.7 NW 9 13 5 7 - - 0.2
26/08:10am 16.3 15.8 15.0 92 0.8 NNW 11 17 6 9 - - 0.2
26/08:00am 16.3 15.8 14.9 91 0.8 NW 11 15 6 8 - - 0.2
26/07:50am 16.3 15.8 15.0 92 0.8 NW 11 15 6 8 - - 0.2
26/07:40am 16.2 16.4 15.8 97 0.2 NW 9 15 5 8 - - 0.2
26/07:30am 16.1 15.9 15.8 98 0.2 NW 11 13 6 7 - - 0.2
26/07:20am 15.9 15.8 15.9 100 0.0 NW 11 19 6 10 - - 0.2
26/07:10am 15.8 15.6 15.8 100 0.0 NW 11 13 6 7 - - 0.2
26/07:00am 15.7 16.4 15.7 100 0.0 NW 6 7 3 4 - - 0.2
26/06:50am 15.5 16.6 15.5 100 0.0 NW 4 7 2 4 - - 0.2
26/06:40am 15.3 15.9 15.3 100 0.0 NW 6 9 3 5 - - 0.2
26/06:30am 15.1 16.4 15.1 100 0.0 NW 2 6 1 3 - - 0.2
26/06:20am 14.8 - 14.9 100 - NW 6 11 3 6 - - 0.2
26/06:10am 14.6 15.7 14.6 100 0.0 NNW 2 7 1 4 - - 0.2
26/06:00am 14.4 15.4 14.4 100 0.0 NNW 2 6 1 3 - - 0.2
26/05:50am 14.2 15.2 14.2 100 0.0 NNW 2 4 1 2 - - 0.2
26/05:40am 14.1 14.6 14.1 100 0.0 NNW 4 6 2 3 - - 0.2
26/05:30am 14.0 14.5 14.0 100 0.0 NNW 4 6 2 3 - - 0.2
26/05:20am 14.1 15.0 14.1 100 0.0 NNW 2 4 1 2 - - 0.2
26/05:10am 14.2 15.5 14.2 100 0.0 CALM 0 4 0 2 - - 0.2
26/05:00am 14.2 15.2 14.2 100 0.0 NNW 2 2 1 1 - - 0.0
26/04:50am 14.2 15.5 14.2 100 0.0 CALM 0 4 0 2 - - 0.0
26/04:40am 14.2 15.2 14.2 100 0.0 NNW 2 6 1 3 - - 0.0
26/04:30am 14.3 14.5 14.3 100 0.0 NNW 6 7 3 4 - - 0.0
26/04:20am 14.3 15.3 14.3 100 0.0 NNW 2 4 1 2 - - 0.0
26/04:10am 14.4 15.1 14.4 100 0.0 NNW 4 7 2 4 - - 0.0
26/04:00am 14.5 14.8 14.5 100 0.0 NNW 6 7 3 4 - - 0.0
26/03:50am 14.5 14.6 14.5 100 0.0 NW 7 9 4 5 - - 0.0
26/03:40am 14.4 14.7 14.4 100 0.0 NW 6 7 3 4 - - 0.0
26/03:30am 14.4 14.7 14.4 100 0.0 NW 6 9 3 5 - - 0.0
26/03:20am 14.4 15.8 14.4 100 0.0 CALM 0 2 0 1 - - 0.0
26/03:10am 14.4 15.8 14.4 100 0.0 CALM 0 2 0 1 - - 0.0
26/03:00am 14.4 15.8 14.4 100 0.0 CALM 0 0 0 0 - - 0.0
26/02:50am 14.3 15.7 14.3 100 0.0 CALM 0 0 0 0 - - 0.0
26/02:40am 14.3 15.7 14.3 100 0.0 CALM 0 0 0 0 - - 0.0
26/02:30am 14.2 15.5 14.2 100 0.0 CALM 0 0 0 0 - - 0.0
26/02:20am 14.1 14.6 14.1 100 0.0 NW 4 6 2 3 - - 0.0
26/02:10am 14.2 15.5 14.2 100 0.0 CALM 0 0 0 0 - - 0.0
26/02:00am 14.0 15.3 14.0 100 0.0 CALM 0 0 0 0 - - 0.0
26/01:50am 13.9 15.1 13.9 100 0.0 CALM 0 0 0 0 - - 0.0
26/01:40am 14.0 15.3 14.0 100 0.0 CALM 0 0 0 0 - - 0.0
26/01:30am 14.0 15.3 14.0 100 0.0 CALM 0 0 0 0 - - 0.0
26/01:20am 14.1 15.4 14.1 100 0.0 CALM 0 0 0 0 - - 0.0
26/01:10am 14.0 15.3 14.0 100 0.0 CALM 0 0 0 0 - - 0.0
26/01:00am 14.1 15.4 14.1 100 0.0 CALM 0 0 0 0 - - 0.0
26/12:50am 14.1 15.4 14.1 100 0.0 CALM 0 0 0 0 - - 0.0
26/12:40am 14.2 15.5 14.2 100 0.0 CALM 0 0 0 0 - - 0.0
26/12:30am 14.2 15.5 14.2 100 0.0 CALM 0 0 0 0 - - 0.0
26/12:20am 14.1 15.4 14.1 100 0.0 CALM 0 0 0 0 - - 0.0
26/12:10am 14.1 15.4 14.1 100 0.0 CALM 0 0 0 0 - - 0.0
26/12:00am 14.2 15.5 14.2 100 0.0 CALM 0 0 0 0 - - 0.0
 
Date/Time
EST
Temp
°C
App
Temp
°C
Dew
Point
°C
Rel
Hum
%
Delta-T
°C
Wind Press
QNH
hPa
Press
MSL
hPa
Rain since
9am
mm
Dir  Spd
km/h
Gust
km/h
Spd
kts
Gust
kts
25/11:50pm 14.3 15.7 14.3 100 0.0 CALM 0 0 0 0 - - 0.0
25/11:40pm 14.4 15.8 14.4 100 0.0 CALM 0 0 0 0 - - 0.0
25/11:30pm 14.4 15.8 14.4 100 0.0 CALM 0 0 0 0 - - 0.0
25/11:20pm 14.5 15.9 14.5 100 0.0 CALM 0 0 0 0 - - 0.0
25/11:10pm 14.5 15.9 14.5 100 0.0 CALM 0 0 0 0 - - 0.0
25/11:00pm 14.6 16.1 14.6 100 0.0 CALM 0 0 0 0 - - 0.0
25/10:50pm 14.7 16.2 14.7 100 0.0 CALM 0 2 0 1 - - 0.0
25/10:40pm 14.8 16.4 14.8 100 0.0 CALM 0 2 0 1 - - 0.0
25/10:30pm 14.9 16.5 14.9 100 0.0 CALM 0 0 0 0 - - 0.0
25/10:20pm 15.0 16.6 15.0 100 0.0 CALM 0 0 0 0 - - 0.0
25/10:10pm 15.1 16.8 15.1 100 0.0 CALM 0 0 0 0 - - 0.0
25/10:00pm 15.1 16.8 15.1 100 0.0 CALM 0 4 0 2 - - 0.0
25/09:50pm 15.3 17.0 15.2 99 0.1 CALM 0 4 0 2 - - 0.0
25/09:40pm 15.3 16.9 15.0 98 0.2 CALM 0 0 0 0 - - 0.0
25/09:30pm 15.2 16.8 14.9 98 0.2 CALM 0 2 0 1 - - 0.0
25/09:20pm 15.2 16.7 14.7 97 0.3 CALM 0 2 0 1 - - 0.0
25/09:10pm 15.1 16.6 14.6 97 0.3 CALM 0 0 0 0 - - 0.0
25/09:00pm 15.1 16.5 14.5 96 0.4 CALM 0 4 0 2 - - 0.0
25/08:50pm 15.0 15.3 14.5 97 0.3 E 6 6 3 3 - - 0.0
25/08:40pm 15.0 15.7 14.5 97 0.3 E 4 7 2 4 - - 0.0
25/08:30pm 15.0 16.5 14.6 97 0.2 CALM 0 4 0 2 - - 0.0
25/08:20pm 15.0 15.4 14.7 98 0.2 E 6 9 3 5 - - 0.0
25/08:10pm 15.0 15.2 14.7 98 0.2 E 7 9 4 5 - - 0.0
25/08:00pm 15.1 15.3 14.7 97 0.2 E 7 9 4 5 - - 0.0
25/07:50pm 15.1 15.3 14.7 97 0.2 E 7 9 4 5 - - 0.0
25/07:40pm 15.1 15.3 14.6 97 0.3 E 7 9 4 5 - - 0.0
25/07:30pm 15.1 15.4 14.6 97 0.3 E 6 7 3 4 - - 0.0

Other formats

Comma delimited format used in spreadsheet applications
http://www.bom.gov.au/fwo/IDQ60801/IDQ60801.99123.axf

JavaScript Object Notation format (JSON) in row-major order
http://www.bom.gov.au/fwo/IDQ60801/IDQ60801.99123.json

Data quality

Most of these data are generated automatically and are frequently updated. Quality checks on data are not normally performed. It is possible for incorrect values to appear. Refer to information at About Latest Weather Observations and please check the disclaimer before using these data.